Latest Weather Observations for Centre Island

IDD60801

Issued at 4:31 pm CST Wednesday 29 June 2016 (issued every 30 minutes, with the page automatically refreshed every 10 minutes)

About weather observations | Map of weather stations | Latest weather observations for NT | Other Formats
Station Details ID: 014703 Name: CENTRE ISLAND Lat: -15.74 Lon: 136.82 Height: 12.2 m
Data from the previous 72 hours. | See also: Recent months at Centre Island
Date/Time
CST
Temp
°C
App
Temp
°C
Dew
Point
°C
Rel
Hum
%
Delta-T
°C
Wind Press
QNH
hPa
Press
MSL
hPa
Rain since
9am
mm
Dir  Spd
km/h
Gust
km/h
Spd
kts
Gust
kts
29/04:30pm 25.2 23.3 15.2 54 6.0 E 19 24 10 13 1015.3 1015.3 0.0
29/04:00pm 26.0 24.0 13.8 47 7.2 ENE 17 24 9 13 1015.2 1015.2 0.0
29/03:30pm 25.7 24.8 12.5 44 7.6 NE 9 13 5 7 1015.2 1015.2 0.0
29/03:00pm 25.5 24.2 12.4 44 7.5 E 11 13 6 7 1015.2 1015.2 0.0
29/02:30pm 25.9 24.2 9.7 36 8.9 ENE 9 11 5 6 1015.3 1015.3 0.0
29/02:00pm 26.1 24.3 9.5 35 9.1 ENE 9 13 5 7 1015.7 1015.7 0.0
29/01:30pm 24.8 23.0 9.5 38 8.3 E 9 11 5 6 1016.1 1016.1 0.0
29/01:00pm 24.5 23.4 10.8 42 7.6 ESE 7 11 4 6 1016.8 1016.8 0.0
29/12:30pm 23.4 21.5 9.0 40 7.7 ESE 9 11 5 6 1017.5 1017.5 0.0
29/12:00pm 24.0 21.5 8.0 36 8.5 SSE 11 15 6 8 1018.2 1018.2 0.0
29/11:30am 23.6 20.3 8.1 37 8.2 SE 15 20 8 11 1018.8 1018.8 0.0
29/11:00am 23.0 18.5 7.1 36 8.2 SE 20 26 11 14 1019.1 1019.1 0.0
29/10:30am 22.0 17.5 7.0 38 7.7 SE 20 24 11 13 1019.4 1019.4 0.0
29/10:00am 20.7 15.3 6.3 39 7.2 SE 24 30 13 16 1019.3 1019.3 0.0
29/09:30am 20.3 13.8 8.3 46 6.2 SE 32 35 17 19 1019.6 1019.6 0.0
29/09:00am 19.6 12.8 7.7 46 6.1 SE 33 39 18 21 1019.6 1019.6 0.0
29/08:30am 18.9 11.9 6.7 45 6.1 SE 33 41 18 22 1019.5 1019.5 0.0
29/08:00am 18.7 11.2 6.2 44 6.2 SE 35 43 19 23 1019.5 1019.5 0.0
29/07:30am 18.1 11.2 6.3 46 5.8 SSE 32 35 17 19 1019.0 1019.0 0.0
29/07:00am 18.0 10.9 6.2 46 5.8 SSE 33 39 18 21 1018.7 1018.7 0.0
29/06:30am 18.2 11.4 6.7 47 5.7 SSE 32 39 17 21 1018.3 1018.3 0.0
29/06:00am 18.5 11.9 7.6 49 5.5 SSE 32 37 17 20 1018.2 1018.2 0.0
29/05:30am 18.7 12.7 7.2 47 5.8 SSE 28 33 15 18 1018.3 1018.3 0.0
29/05:00am 19.2 12.2 6.7 44 6.3 SSE 33 39 18 21 1018.1 1018.1 0.0
29/04:30am 19.3 10.5 5.7 41 6.7 SE 41 50 22 27 1017.9 1017.9 0.0
29/04:00am 19.6 10.9 8.3 48 5.9 SE 44 52 24 28 1017.9 1017.9 0.0
29/03:30am 19.8 9.7 7.5 45 6.3 SE 50 59 27 32 1017.7 1017.7 0.0
29/03:00am 20.3 10.8 9.8 51 5.6 SE 50 57 27 31 1017.9 1017.9 0.0
29/02:30am 20.6 10.9 9.2 48 6.0 SE 50 59 27 32 1018.1 1018.1 0.0
29/02:00am 21.0 11.1 9.6 48 6.1 SE 52 59 28 32 1018.2 1018.2 0.0
29/01:30am 21.4 11.1 9.6 47 6.3 SE 54 65 29 35 1018.1 1018.1 0.0
29/01:00am 21.9 12.4 11.3 51 5.9 SE 52 61 28 33 1018.0 1018.0 0.0
29/12:30am 22.3 13.2 11.4 50 6.1 SE 50 57 27 31 1018.0 1018.0 0.0
29/12:00am 22.9 15.3 12.5 52 5.9 SE 44 50 24 27 1017.9 1017.9 0.0
 
Date/Time
CST
Temp
°C
App
Temp
°C
Dew
Point
°C
Rel
Hum
%
Delta-T
°C
Wind Press
QNH
hPa
Press
MSL
hPa
Rain since
9am
mm
Dir  Spd
km/h
Gust
km/h
Spd
kts
Gust
kts
28/11:30pm 23.3 15.9 13.2 53 5.8 SE 44 50 24 27 1017.9 1017.9 0.0
28/11:00pm 23.7 17.6 15.2 59 5.1 SE 41 50 22 27 1018.0 1018.0 0.0
28/10:30pm 23.9 18.3 16.4 63 4.6 ESE 41 48 22 26 1018.0 1018.0 0.0
28/10:00pm 23.8 19.8 17.5 68 3.9 ESE 35 43 19 23 1017.9 1017.9 0.0
28/09:30pm 23.7 20.3 17.7 69 3.7 ESE 32 37 17 20 1017.9 1017.9 0.0
28/09:00pm 23.4 20.1 16.9 67 4.0 ESE 30 35 16 19 1017.8 1017.8 0.0
28/08:30pm 23.4 20.3 17.6 70 3.6 E 30 37 16 20 1017.6 1017.6 0.0
28/08:00pm 23.3 19.7 17.1 68 3.8 E 32 37 17 20 1017.4 1017.4 0.0
28/07:30pm 23.3 20.0 17.1 68 3.8 E 30 35 16 19 1017.1 1017.1 0.0
28/07:00pm 23.2 20.5 16.5 66 4.1 E 26 33 14 18 1016.9 1016.9 0.0
28/06:30pm 23.2 20.6 16.0 64 4.4 E 24 30 13 16 1016.6 1016.6 0.0
28/06:00pm 23.3 20.4 16.1 64 4.4 E 26 30 14 16 1016.2 1016.2 0.0
28/05:30pm 23.9 20.9 15.9 61 4.8 E 26 32 14 17 1016.0 1016.0 0.0
28/05:00pm 24.5 21.8 15.7 58 5.3 ENE 24 28 13 15 1015.7 1015.7 0.0
28/04:30pm 25.2 22.9 15.8 56 5.7 E 22 28 12 15 1015.6 1015.6 0.0
28/04:00pm 25.8 23.5 15.8 54 6.1 E 22 30 12 16 1015.6 1015.6 0.0
28/03:30pm 26.1 23.6 15.2 51 6.6 E 22 28 12 15 1015.5 1015.5 0.0
28/03:00pm 26.6 24.5 15.3 50 6.8 ENE 20 26 11 14 1015.9 1015.9 0.0
28/02:30pm 26.7 24.4 14.1 46 7.5 E 19 24 10 13 1016.2 1016.2 0.0
28/02:00pm 27.1 24.9 14.5 46 7.6 E 19 24 10 13 1016.4 1016.4 0.0
28/01:30pm 26.8 24.3 14.2 46 7.5 ESE 20 24 11 13 1016.8 1016.8 0.0
28/01:00pm 25.9 23.2 13.4 46 7.3 ESE 20 24 11 13 1017.2 1017.2 0.0
28/12:30pm 25.4 22.4 13.6 48 6.9 ESE 22 26 12 14 1017.6 1017.6 0.0
28/12:00pm 25.3 22.4 14.1 50 6.6 ESE 22 28 12 15 1018.1 1018.1 0.0
28/11:30am 25.4 21.9 13.3 47 7.1 ESE 24 28 13 15 1018.3 1018.3 0.0
28/11:00am 24.7 20.1 12.3 46 7.1 SE 28 32 15 17 1018.6 1018.6 0.0
28/10:30am 24.0 20.0 11.7 46 6.9 SE 24 30 13 16 1018.9 1018.9 0.0
28/10:00am 23.8 20.8 12.4 48 6.5 SE 20 28 11 15 1019.0 1019.0 0.0
28/09:30am 22.6 19.6 12.5 53 5.7 SE 20 24 11 13 1018.9 1018.9 0.0
28/09:00am 21.8 17.7 12.6 56 5.2 SE 26 32 14 17 1018.7 1018.7 0.0
28/08:30am 21.4 16.4 13.3 60 4.6 SE 32 41 17 22 1018.3 1018.3 0.0
28/08:00am 21.1 16.8 13.3 61 4.5 SE 28 32 15 17 1017.9 1017.9 0.0
28/07:30am 20.7 16.0 13.2 62 4.3 SE 30 35 16 19 1017.4 1017.4 0.0
28/07:00am 20.7 15.9 13.9 65 3.9 SE 32 39 17 21 1017.2 1017.2 0.0
28/06:30am 20.9 15.7 13.4 62 4.3 SE 33 39 18 21 1016.9 1016.9 0.0
28/06:00am 21.3 15.9 14.0 63 4.2 SE 35 44 19 24 1016.6 1016.6 0.0
28/05:30am 21.4 16.7 14.3 64 4.1 SSE 32 39 17 21 1016.6 1016.6 0.0
28/05:00am 21.5 16.8 14.4 64 4.2 SE 32 39 17 21 1016.5 1016.5 0.0
28/04:30am 21.7 17.3 15.1 66 3.9 SE 32 39 17 21 1016.5 1016.5 0.0
28/04:00am 22.1 16.3 15.0 64 4.2 SE 39 46 21 25 1016.5 1016.5 0.0
28/03:30am 22.5 17.7 15.6 65 4.1 SE 35 43 19 23 1016.6 1016.6 0.0
28/03:00am 23.1 17.2 15.7 63 4.4 SE 41 48 22 26 1016.5 1016.5 0.0
28/02:30am 23.3 18.3 16.1 64 4.4 SE 37 44 20 24 1016.6 1016.6 0.0
28/02:00am 23.1 19.7 17.6 71 3.4 SE 32 37 17 20 1016.8 1016.8 0.0
28/01:30am 23.4 20.3 18.3 73 3.2 SE 32 37 17 20 1016.8 1016.8 0.0
28/01:00am 23.3 21.6 19.0 77 2.7 SE 26 30 14 16 1016.8 1016.8 0.0
28/12:30am 23.6 22.9 20.3 82 2.1 SSE 24 28 13 15 1016.9 1016.9 0.0
28/12:00am 24.0 24.0 20.9 83 2.0 SSE 22 26 12 14 1016.9 1016.9 0.0
 
Date/Time
CST
Temp
°C
App
Temp
°C
Dew
Point
°C
Rel
Hum
%
Delta-T
°C
Wind Press
QNH
hPa
Press
MSL
hPa
Rain since
9am
mm
Dir  Spd
km/h
Gust
km/h
Spd
kts
Gust
kts
27/11:30pm 24.5 24.3 21.2 82 2.2 SE 24 30 13 16 1016.8 1016.8 0.0
27/11:00pm 24.5 24.3 21.2 82 2.2 ESE 24 26 13 14 1016.7 1016.7 0.0
27/10:30pm 24.6 24.5 21.5 83 2.0 ESE 24 28 13 15 1016.5 1016.5 0.0
27/10:00pm 24.6 24.5 21.5 83 2.1 ESE 24 30 13 16 1016.4 1016.4 0.0
27/09:30pm 24.7 25.7 21.8 84 1.9 ESE 19 22 10 12 1016.3 1016.3 0.0
27/09:00pm 24.9 26.3 21.8 83 2.1 E 17 20 9 11 1016.2 1016.2 0.0
27/08:30pm 25.0 26.0 21.7 82 2.2 E 19 22 10 12 1015.9 1015.9 0.0
27/08:00pm 25.1 25.6 21.2 79 2.6 ENE 20 24 11 13 1015.8 1015.8 0.0
27/07:30pm 25.2 26.1 20.9 77 2.8 ENE 17 20 9 11 1015.4 1015.4 0.0
27/07:00pm 25.4 26.2 20.6 75 3.1 ENE 17 20 9 11 1015.0 1015.0 0.0
27/06:30pm 25.7 26.9 21.4 77 2.8 E 17 20 9 11 1014.6 1014.6 0.0
27/06:00pm 25.9 26.6 21.6 77 2.9 E 20 24 11 13 1014.1 1014.1 0.0
27/05:30pm 26.8 27.0 22.0 75 3.2 E 24 28 13 15 1013.8 1013.8 0.0
27/05:00pm 27.9 29.7 22.6 73 3.6 E 17 20 9 11 1013.5 1013.5 0.0
27/04:30pm 29.3 31.4 21.0 61 5.5 NNE 11 17 6 9 1013.3 1013.3 0.0
27/04:00pm 29.5 30.7 21.4 61 5.4 ENE 17 20 9 11 1013.0 1013.0 0.0
27/03:30pm 29.5 31.4 21.4 61 5.4 ESE 13 17 7 9 1012.9 1012.9 0.0
27/03:00pm 29.8 32.1 20.6 57 6.1 SE 9 11 5 6 1012.9 1012.9 0.0
27/02:30pm 30.4 32.8 20.0 53 6.8 S 7 9 4 5 1013.2 1013.2 0.0
27/02:00pm 30.0 32.2 19.7 54 6.7 SSW 7 9 4 5 1013.4 1013.4 0.0
27/01:30pm 29.7 32.4 21.4 61 5.6 SW 9 11 5 6 1013.7 1013.7 0.0
27/01:00pm 29.3 31.8 21.8 64 5.0 SW 11 15 6 8 1014.2 1014.2 0.0
27/12:30pm 28.2 31.2 22.7 72 3.7 SSW 11 13 6 7 1014.6 1014.6 0.0
27/12:00pm 27.8 30.7 22.5 73 3.6 SSW 11 15 6 8 1015.1 1015.1 0.0
27/11:30am 27.8 30.2 23.0 75 3.3 SSW 15 20 8 11 1015.5 1015.5 0.0
27/11:00am 26.9 28.8 22.7 78 2.8 SSW 17 20 9 11 1015.7 1015.7 0.0
27/10:30am 25.7 28.2 22.4 82 2.2 S 13 19 7 10 1015.9 1015.9 0.0
27/10:00am 23.6 25.4 21.9 90 1.1 S 15 20 8 11 1016.1 1016.1 0.0
27/09:30am 23.3 25.0 21.6 90 1.1 SSE 15 19 8 10 1015.8 1015.8 0.0
27/09:00am 22.9 24.1 21.4 91 1.0 S 17 20 9 11 1015.9 1015.9 0.0
27/08:30am 23.5 26.2 21.4 88 1.4 S 9 11 5 6 1015.3 1015.3 0.0
27/08:00am 23.2 26.5 21.8 92 0.9 SSE 7 9 4 5 1014.7 1014.7 0.0
27/07:30am 23.0 26.6 22.3 96 0.5 S 7 11 4 6 1014.3 1014.3 0.0
27/07:00am 23.0 26.6 22.3 96 0.5 SSE 7 9 4 5 1013.9 1013.9 0.0
27/06:30am 23.0 26.7 22.3 96 0.5 SSE 6 7 3 4 1013.7 1013.7 0.0
27/06:00am 23.0 26.6 22.3 96 0.5 SE 7 9 4 5 1013.4 1013.4 0.0
27/05:30am 22.9 26.5 22.1 95 0.5 ESE 6 7 3 4 1013.1 1013.1 0.0
27/05:00am 22.9 26.5 22.1 95 0.5 E 6 7 3 4 1013.0 1013.0 0.0
27/04:30am 23.1 26.8 22.3 95 0.5 NE 6 7 3 4 1012.9 1012.9 0.0
27/04:00am 23.3 27.0 22.3 94 0.7 NNE 6 6 3 3 1012.6 1012.6 0.0
27/03:30am 23.3 26.9 22.1 93 0.8 NNE 6 6 3 3 1012.6 1012.6 0.0
27/03:00am 23.0 26.4 21.6 92 0.9 NNE 6 7 3 4 1012.6 1012.6 0.0
27/02:30am 23.8 27.3 22.8 94 0.7 NNE 9 13 5 7 1012.8 1012.8 0.0
27/02:00am 23.9 27.3 22.7 93 0.8 NNE 9 13 5 7 1012.9 1012.9 0.0
27/01:30am 23.9 26.9 22.7 93 0.8 NNE 11 13 6 7 1013.0 1013.0 0.0
27/01:00am 23.9 27.2 22.5 92 0.9 NNE 9 11 5 6 1013.1 1013.1 0.0
27/12:30am 24.0 26.8 22.3 90 1.1 NNE 11 15 6 8 1013.1 1013.1 0.0
27/12:00am 24.0 26.3 22.1 89 1.3 NNE 13 15 7 8 1013.3 1013.3 0.0
 
Date/Time
CST
Temp
°C
App
Temp
°C
Dew
Point
°C
Rel
Hum
%
Delta-T
°C
Wind Press
QNH
hPa
Press
MSL
hPa
Rain since
9am
mm
Dir  Spd
km/h
Gust
km/h
Spd
kts
Gust
kts
26/11:30pm 24.0 26.3 22.1 89 1.3 NE 13 15 7 8 1013.4 1013.4 0.0
26/11:00pm 24.1 26.8 22.2 89 1.3 NE 11 15 6 8 1013.5 1013.5 0.0
26/10:30pm 24.0 26.6 21.9 88 1.4 NE 11 15 6 8 1013.6 1013.6 0.0
26/10:00pm 24.1 26.4 22.0 88 1.4 NE 13 15 7 8 1013.7 1013.7 0.0
26/09:30pm 24.1 26.6 21.8 87 1.5 NE 11 13 6 7 1013.6 1013.6 0.0
26/09:00pm 24.1 26.5 21.6 86 1.7 NE 11 15 6 8 1013.4 1013.4 0.0
26/08:30pm 24.3 26.6 21.4 84 1.9 NE 11 13 6 7 1013.3 1013.3 0.0
26/08:00pm 24.4 26.5 20.9 81 2.3 NE 11 15 6 8 1013.0 1013.0 0.0
26/07:30pm 24.6 26.2 20.7 79 2.6 NNE 13 17 7 9 1012.7 1012.7 0.0
26/07:00pm 24.9 26.2 20.8 78 2.7 NNE 15 19 8 10 1012.4 1012.4 0.0
26/06:30pm 24.9 26.1 19.9 74 3.2 NNE 13 15 7 8 1012.2 1012.2 0.0
26/06:00pm 25.2 26.9 20.2 74 3.3 NE 11 15 6 8 1012.1 1012.1 0.0
26/05:30pm 26.1 28.6 20.2 70 3.9 NE 7 11 4 6 1011.9 1011.9 0.0
26/05:00pm 26.5 28.8 20.6 70 3.9 NE 9 9 5 5 1011.7 1011.7 0.0

Other Formats:

Comma delimited format used in spreadsheet applications
http://www.bom.gov.au/fwo/IDD60801/IDD60801.94248.axf

JavaScript Object Notation format (JSON) in row-major order
http://www.bom.gov.au/fwo/IDD60801/IDD60801.94248.json